createdAt,value
2022-12-08T00:01:11.660Z,9.32
2022-12-08T00:03:38.382Z,6.38
2022-12-08T00:06:23.799Z,9.93
2022-12-08T00:09:09.232Z,7.43
2022-12-08T00:11:35.654Z,9.63
2022-12-08T00:14:02.026Z,9.93
2022-12-08T00:16:28.576Z,13.32
2022-12-08T00:18:55.057Z,11.20
2022-12-08T00:21:21.443Z,8.35
2022-12-08T00:23:47.907Z,11.57
2022-12-08T00:26:14.268Z,8.77
2022-12-08T00:28:40.768Z,12.05
2022-12-08T00:31:08.562Z,8.93
2022-12-08T00:33:35.072Z,8.00
2022-12-08T00:36:08.176Z,12.38
2022-12-08T00:38:34.950Z,12.20
2022-12-08T00:41:01.481Z,11.05
2022-12-08T00:43:27.934Z,9.13
2022-12-08T00:45:54.401Z,7.53
2022-12-08T00:48:20.998Z,8.02
2022-12-08T00:50:47.390Z,6.00
2022-12-08T00:53:13.813Z,6.53
2022-12-08T00:55:40.178Z,6.68
2022-12-08T00:58:06.571Z,6.97
2022-12-08T01:00:32.961Z,12.25
2022-12-08T01:02:59.462Z,10.52
2022-12-08T01:05:26.256Z,8.73
2022-12-08T01:07:52.650Z,7.03
2022-12-08T01:10:19.074Z,8.05
2022-12-08T01:12:45.439Z,7.30
2022-12-08T01:15:11.842Z,8.77
2022-12-08T01:17:38.405Z,6.00
2022-12-08T01:20:05.572Z,4.57
2022-12-08T01:22:33.515Z,5.90
2022-12-08T01:24:59.939Z,8.23
2022-12-08T01:27:26.537Z,10.40
2022-12-08T01:29:52.895Z,6.88
2022-12-08T01:32:19.411Z,6.75
2022-12-08T01:34:45.787Z,7.57
2022-12-08T01:37:12.684Z,7.80
2022-12-08T01:39:41.191Z,6.57
2022-12-08T01:42:18.597Z,9.20
2022-12-08T01:44:44.941Z,6.55
2022-12-08T01:47:11.775Z,5.40
2022-12-08T01:49:38.193Z,9.95
2022-12-08T01:52:25.299Z,5.93
2022-12-08T01:54:56.609Z,11.10
2022-12-08T01:57:42.695Z,7.28
2022-12-08T02:00:10.897Z,5.82
2022-12-08T02:02:46.652Z,10.65
2022-12-08T02:05:13.675Z,9.23
2022-12-08T02:07:40.343Z,10.95
2022-12-08T02:10:07.186Z,9.63
2022-12-08T02:12:33.906Z,6.50
2022-12-08T02:15:04.693Z,9.30
2022-12-08T02:17:50.588Z,9.43
2022-12-08T02:20:30.486Z,7.13
2022-12-08T02:22:56.895Z,9.90
2022-12-08T02:25:23.319Z,6.68
2022-12-08T02:28:08.560Z,11.33
2022-12-08T02:30:53.603Z,6.82
2022-12-08T02:33:38.094Z,7.32
2022-12-08T02:36:07.469Z,7.97
2022-12-08T02:38:45.859Z,12.30
2022-12-08T02:41:17.634Z,7.93
2022-12-08T02:43:59.222Z,10.85
2022-12-08T02:46:29.013Z,9.32
2022-12-08T02:48:55.845Z,10.10
2022-12-08T02:51:22.212Z,10.73
2022-12-08T02:53:48.743Z,10.18
2022-12-08T02:56:21.023Z,6.75
2022-12-08T02:58:56.518Z,5.47
2022-12-08T03:01:35.100Z,5.82
2022-12-08T03:04:08.812Z,5.78
2022-12-08T03:06:41.278Z,7.43
2022-12-08T03:09:14.355Z,8.35
2022-12-08T03:11:56.304Z,7.22
2022-12-08T03:14:22.896Z,8.65
2022-12-08T03:16:51.828Z,7.45
2022-12-08T03:19:23.409Z,5.47
2022-12-08T03:21:53.908Z,4.93
2022-12-08T03:24:22.892Z,4.95
2022-12-08T03:26:52.622Z,5.85
2022-12-08T03:29:19.324Z,5.32
2022-12-08T03:31:53.923Z,8.40
2022-12-08T03:34:21.982Z,8.82
2022-12-08T03:36:48.373Z,5.38
2022-12-08T03:39:14.947Z,8.68
2022-12-08T03:41:41.353Z,7.72
2022-12-08T03:44:07.815Z,8.48
2022-12-08T03:46:34.184Z,8.48
2022-12-08T03:49:00.556Z,5.90
2022-12-08T03:51:27.366Z,6.03
2022-12-08T03:53:53.753Z,13.15
2022-12-08T03:56:25.932Z,8.38
2022-12-08T03:58:52.459Z,7.38
2022-12-08T04:01:19.047Z,7.38
2022-12-08T04:03:45.564Z,9.50
2022-12-08T04:06:12.373Z,8.70
2022-12-08T04:08:38.746Z,6.80
2022-12-08T04:11:06.539Z,6.90
2022-12-08T04:13:36.954Z,8.15
2022-12-08T04:16:03.869Z,7.20
2022-12-08T04:18:30.553Z,4.85
2022-12-08T04:20:56.923Z,8.13
2022-12-08T04:23:23.527Z,11.02
2022-12-08T04:25:51.463Z,8.30
2022-12-08T04:28:17.854Z,12.73
2022-12-08T04:30:44.430Z,8.65
2022-12-08T04:33:10.915Z,11.35
2022-12-08T04:35:37.342Z,6.38
2022-12-08T04:38:03.917Z,7.80
2022-12-08T04:40:30.750Z,10.50
2022-12-08T04:42:57.252Z,10.13
2022-12-08T04:45:23.808Z,6.35
2022-12-08T04:47:50.357Z,8.70
2022-12-08T04:50:16.740Z,11.57
2022-12-08T04:52:43.174Z,6.97
2022-12-08T04:55:09.688Z,8.77
2022-12-08T04:57:36.311Z,8.13
2022-12-08T05:00:03.385Z,7.25
2022-12-08T05:02:30.052Z,5.53
2022-12-08T05:04:56.722Z,4.80
2022-12-08T05:07:23.237Z,5.88
2022-12-08T05:09:49.661Z,7.18
2022-12-08T05:12:16.046Z,9.88
2022-12-08T05:14:42.443Z,8.02
2022-12-08T05:17:09.911Z,5.75
2022-12-08T05:19:36.624Z,6.35
2022-12-08T05:22:03.245Z,6.03
2022-12-08T05:24:29.657Z,3.72
2022-12-08T05:26:56.018Z,6.47
2022-12-08T05:29:22.426Z,4.07
2022-12-08T05:31:48.979Z,8.32
2022-12-08T05:34:15.692Z,8.35
2022-12-08T05:36:42.106Z,5.25
2022-12-08T05:39:09.287Z,5.20
2022-12-08T05:41:35.697Z,7.28
2022-12-08T05:44:02.070Z,5.40
2022-12-08T05:46:28.537Z,5.80
2022-12-08T05:48:54.974Z,5.13
2022-12-08T05:51:22.278Z,5.82
2022-12-08T05:53:49.405Z,6.05
2022-12-08T05:56:15.926Z,6.60
2022-12-08T05:58:42.701Z,4.50
2022-12-08T06:01:18.504Z,3.70
2022-12-08T06:03:45.024Z,3.33
2022-12-08T06:06:11.399Z,5.90
2022-12-08T06:08:37.774Z,5.07
2022-12-08T06:11:04.203Z,7.63
2022-12-08T06:13:30.620Z,5.10
2022-12-08T06:16:03.283Z,7.10
2022-12-08T06:18:32.821Z,4.55
2022-12-08T06:21:03.478Z,6.95
2022-12-08T06:23:29.929Z,8.20
2022-12-08T06:26:00.324Z,5.72
2022-12-08T06:28:26.678Z,6.00
2022-12-08T06:30:53.228Z,5.30
2022-12-08T06:33:19.600Z,5.30
2022-12-08T06:35:45.980Z,2.53
2022-12-08T06:38:12.548Z,6.45
2022-12-08T06:40:38.903Z,3.55
2022-12-08T06:43:05.311Z,5.65
2022-12-08T06:45:31.800Z,3.03
2022-12-08T06:47:58.387Z,8.60
2022-12-08T06:50:24.810Z,7.10
2022-12-08T06:53:01.061Z,3.15
2022-12-08T06:58:18.275Z,5.60
2022-12-08T07:00:44.782Z,5.45
2022-12-08T07:03:11.959Z,7.97
2022-12-08T07:05:38.978Z,4.72
2022-12-08T07:08:07.291Z,5.97
2022-12-08T07:10:33.791Z,5.18
2022-12-08T07:13:00.237Z,4.53
2022-12-08T07:15:26.897Z,2.90
2022-12-08T07:17:59.379Z,4.28
2022-12-08T07:20:26.470Z,6.18
2022-12-08T07:22:53.303Z,4.28
2022-12-08T07:25:19.807Z,8.98
2022-12-08T07:27:46.268Z,5.68
2022-12-08T07:30:13.144Z,6.57
2022-12-08T07:32:39.743Z,3.47
2022-12-08T07:35:06.695Z,3.58
2022-12-08T07:37:33.787Z,6.95
2022-12-08T07:40:00.444Z,3.78
2022-12-08T07:42:27.030Z,5.88
2022-12-08T07:44:53.415Z,5.05
2022-12-08T07:47:19.764Z,6.63
2022-12-08T07:49:46.151Z,5.78
2022-12-08T07:52:12.617Z,5.00
2022-12-08T07:54:39.250Z,5.55
2022-12-08T07:57:06.162Z,6.75
2022-12-08T07:59:32.795Z,7.93
2022-12-08T08:02:22.415Z,7.10
2022-12-08T08:04:45.608Z,7.18
2022-12-08T08:07:12.281Z,7.18
2022-12-08T08:09:38.732Z,5.75
2022-12-08T08:12:29.683Z,5.30
2022-12-08T08:14:51.876Z,8.25
2022-12-08T08:17:18.358Z,6.15
2022-12-08T08:19:46.389Z,5.68
2022-12-08T08:22:12.998Z,5.10
2022-12-08T08:24:44.625Z,4.05
2022-12-08T08:27:11.575Z,6.00
2022-12-08T08:29:38.024Z,5.60
2022-12-08T08:32:04.453Z,4.63
2022-12-08T08:34:31.096Z,6.85
2022-12-08T08:36:57.596Z,7.13
2022-12-08T08:39:24.106Z,5.05
2022-12-08T08:41:50.710Z,10.57
2022-12-08T08:44:17.195Z,5.82
2022-12-08T08:46:43.621Z,9.53
2022-12-08T08:49:10.077Z,4.95
2022-12-08T08:51:36.486Z,5.25
2022-12-08T08:54:02.933Z,7.32
2022-12-08T08:56:29.627Z,6.97
2022-12-08T08:58:56.155Z,6.35
2022-12-08T09:01:24.306Z,12.25
2022-12-08T09:03:50.863Z,5.32
2022-12-08T09:06:17.794Z,7.07
2022-12-08T09:08:44.538Z,4.78
2022-12-08T09:11:11.450Z,6.55
2022-12-08T09:13:38.250Z,3.88
2022-12-08T09:16:05.752Z,4.65
2022-12-08T09:18:32.961Z,6.97
2022-12-08T09:21:06.334Z,1.98
2022-12-08T09:23:35.664Z,1.42
2022-12-08T09:26:03.067Z,5.10
2022-12-08T09:28:29.522Z,2.67
2022-12-08T09:30:56.025Z,1.40
2022-12-08T09:33:22.483Z,1.77
2022-12-08T09:35:49.126Z,2.03
2022-12-08T09:38:15.544Z,2.72
2022-12-08T09:40:52.352Z,1.15
2022-12-08T09:43:36.836Z,4.03
2022-12-08T09:46:05.183Z,2.80
2022-12-08T09:48:37.617Z,2.10
2022-12-08T09:51:04.913Z,3.95
2022-12-08T09:53:49.632Z,2.38
2022-12-08T09:56:18.627Z,2.70
2022-12-08T09:59:03.627Z,3.43
2022-12-08T10:01:31.816Z,4.72
2022-12-08T10:03:58.494Z,5.47
2022-12-08T10:06:28.526Z,3.15
2022-12-08T10:09:00.837Z,3.00
2022-12-08T10:11:32.308Z,4.25
2022-12-08T10:14:10.248Z,4.25
2022-12-08T10:16:41.606Z,2.15
2022-12-08T10:19:17.689Z,2.30
2022-12-08T10:21:44.272Z,3.65
2022-12-08T10:24:33.949Z,3.05
2022-12-08T10:27:01.706Z,3.40
2022-12-08T10:29:28.169Z,4.22
2022-12-08T10:31:57.368Z,4.25
2022-12-08T10:34:24.339Z,4.63
2022-12-08T10:36:57.882Z,5.88
2022-12-08T10:39:31.691Z,5.20
2022-12-08T10:42:09.142Z,4.10
2022-12-08T10:44:53.522Z,3.90
2022-12-08T10:47:24.086Z,4.28
2022-12-08T10:50:07.036Z,2.50
2022-12-08T10:52:38.321Z,2.78
2022-12-08T10:55:13.431Z,2.78
2022-12-08T10:57:39.896Z,4.40
2022-12-08T11:00:12.431Z,4.28
2022-12-08T11:03:00.686Z,1.73
2022-12-08T11:05:29.329Z,2.20
2022-12-08T11:07:55.898Z,1.98
2022-12-08T11:10:28.922Z,4.63
2022-12-08T11:12:57.919Z,2.55
2022-12-08T11:15:24.491Z,1.93
2022-12-08T11:18:00.207Z,2.80
2022-12-08T11:20:26.862Z,2.53
2022-12-08T11:22:54.634Z,3.10
2022-12-08T11:25:22.858Z,1.85
2022-12-08T11:27:50.567Z,1.50
2022-12-08T11:30:21.243Z,1.13
2022-12-08T11:32:52.358Z,0.90
2022-12-08T11:35:26.837Z,1.55
2022-12-08T11:38:03.331Z,1.80
2022-12-08T11:40:42.154Z,2.07
2022-12-08T11:43:21.307Z,1.63
2022-12-08T11:45:50.311Z,3.72
2022-12-08T11:48:19.146Z,3.22
2022-12-08T11:50:48.157Z,2.22
2022-12-08T11:53:18.553Z,2.95
2022-12-08T11:55:54.748Z,1.63
2022-12-08T11:58:27.226Z,2.55
2022-12-08T12:00:53.681Z,1.63
2022-12-08T12:03:24.886Z,2.78
2022-12-08T12:08:54.143Z,1.58
2022-12-08T12:11:54.335Z,4.70
2022-12-08T12:14:39.779Z,25.13
2022-12-08T12:17:07.403Z,23.65
2022-12-08T12:19:36.428Z,6.57
2022-12-08T12:22:12.123Z,12.40
2022-12-08T12:24:38.950Z,2.35
2022-12-08T12:27:15.202Z,1.50
2022-12-08T12:30:05.816Z,1.63
2022-12-08T12:32:44.709Z,5.83
2022-12-08T12:35:26.815Z,2.20
2022-12-08T12:37:56.023Z,1.75
2022-12-08T12:40:24.193Z,3.53
2022-12-08T12:42:56.815Z,5.00
2022-12-08T12:45:23.183Z,1.65
2022-12-08T12:47:55.841Z,1.63
2022-12-08T12:50:34.841Z,1.70
2022-12-08T12:53:03.432Z,2.83
2022-12-08T12:55:50.183Z,1.83
2022-12-08T12:58:21.343Z,1.60
2022-12-08T13:00:47.782Z,2.72
2022-12-08T13:03:17.850Z,3.58
2022-12-08T13:05:52.458Z,2.80
2022-12-08T13:08:23.376Z,3.45
2022-12-08T13:10:58.880Z,3.53
2022-12-08T13:13:25.677Z,2.88
2022-12-08T13:15:57.248Z,2.63
2022-12-08T13:18:23.615Z,2.15
2022-12-08T13:21:15.096Z,1.73
2022-12-08T13:23:44.669Z,2.33
2022-12-08T13:26:16.988Z,3.05
2022-12-08T13:28:58.688Z,2.70
2022-12-08T13:31:43.875Z,1.67
2022-12-08T13:34:27.097Z,1.70
2022-12-08T13:36:53.576Z,1.80
2022-12-08T13:39:21.587Z,2.25
2022-12-08T13:41:52.070Z,3.53
2022-12-08T13:47:59.663Z,3.00
2022-12-08T13:59:06.362Z,3.17
2022-12-08T14:01:35.270Z,3.25
2022-12-08T14:04:34.293Z,4.00
2022-12-08T14:06:50.335Z,9.55
2022-12-08T14:09:24.987Z,30.00
2022-12-08T14:11:54.869Z,5.10
2022-12-08T14:14:46.031Z,7.85
2022-12-08T14:17:13.486Z,4.25
2022-12-08T14:19:42.473Z,2.53
2022-12-08T14:22:13.883Z,4.03
2022-12-08T14:24:40.964Z,2.50
2022-12-08T14:27:08.714Z,6.70
2022-12-08T14:29:38.135Z,7.60
2022-12-08T14:32:06.126Z,7.75
2022-12-08T14:34:40.639Z,5.60
2022-12-08T14:37:11.105Z,8.88
2022-12-08T14:39:38.853Z,7.43
2022-12-08T14:42:05.697Z,4.75
2022-12-08T14:44:32.969Z,2.53
2022-12-08T14:47:06.278Z,4.47
2022-12-08T14:49:34.160Z,4.90
2022-12-08T14:52:01.100Z,3.42
2022-12-08T14:54:29.719Z,9.07
2022-12-08T14:56:57.021Z,4.60
2022-12-08T14:59:34.159Z,6.35
2022-12-08T15:02:13.266Z,8.02
2022-12-08T15:04:41.146Z,8.40
2022-12-08T15:07:12.023Z,6.10
2022-12-08T15:09:41.014Z,2.67
2022-12-08T15:12:13.204Z,3.95
2022-12-08T15:14:43.575Z,2.58
2022-12-08T15:17:28.770Z,6.45
2022-12-08T15:19:56.000Z,4.97
2022-12-08T15:22:25.897Z,6.03
2022-12-08T15:24:52.779Z,37.05
2022-12-08T15:27:20.189Z,22.50
2022-12-08T15:29:47.297Z,17.17
2022-12-08T15:32:16.578Z,11.18
2022-12-08T15:34:42.949Z,6.28
2022-12-08T15:37:18.374Z,7.00
2022-12-08T15:39:44.735Z,9.18
2022-12-08T15:42:14.861Z,38.70
2022-12-08T15:44:43.390Z,36.05
2022-12-08T15:47:14.920Z,23.95
2022-12-08T15:49:41.345Z,18.13
2022-12-08T15:52:13.182Z,20.50
2022-12-08T15:54:39.626Z,19.40
2022-12-08T15:57:35.871Z,8.30
2022-12-08T15:59:52.661Z,7.18
2022-12-08T16:02:22.601Z,7.15
2022-12-08T16:07:38.169Z,11.07
2022-12-08T16:10:06.372Z,13.05
2022-12-08T16:15:51.754Z,6.85
2022-12-08T16:18:26.853Z,8.77
2022-12-08T16:23:44.672Z,7.30
2022-12-08T16:26:54.624Z,7.95
2022-12-08T16:29:07.553Z,4.55
2022-12-08T16:31:34.460Z,5.32
2022-12-08T16:34:00.869Z,6.70
2022-12-08T16:36:27.268Z,4.47
2022-12-08T16:38:53.665Z,5.82
2022-12-08T16:41:38.666Z,10.27
2022-12-08T16:44:05.777Z,3.05
2022-12-08T16:46:32.577Z,7.07
2022-12-08T16:48:59.150Z,3.88
2022-12-08T16:51:27.246Z,4.90
2022-12-08T16:53:54.546Z,2.78
2022-12-08T16:56:22.285Z,4.57
2022-12-08T16:58:50.522Z,5.25
2022-12-08T17:01:18.642Z,5.72
2022-12-08T17:04:01.425Z,5.50
2022-12-08T17:06:32.598Z,3.83
2022-12-08T17:08:59.473Z,4.10
2022-12-08T17:11:28.536Z,3.55
2022-12-08T17:13:54.970Z,4.82
2022-12-08T17:16:22.192Z,2.55
2022-12-08T17:18:48.706Z,2.47
2022-12-08T17:21:16.529Z,3.97
2022-12-08T17:23:43.104Z,1.50
2022-12-08T17:26:09.847Z,2.72
2022-12-08T17:28:59.328Z,2.38
2022-12-08T17:31:27.821Z,2.65
2022-12-08T17:33:57.800Z,9.23
2022-12-08T17:36:24.391Z,5.20
2022-12-08T17:38:50.729Z,5.80
2022-12-08T17:41:17.096Z,9.95
2022-12-08T17:43:43.495Z,6.97
2022-12-08T17:46:10.322Z,24.83
2022-12-08T17:48:37.170Z,30.90
2022-12-08T17:51:03.570Z,8.93
2022-12-08T17:53:34.276Z,12.40
2022-12-08T17:56:03.865Z,6.75
2022-12-08T17:58:31.119Z,9.98
2022-12-08T18:00:57.593Z,17.02
2022-12-08T18:03:24.012Z,15.07
2022-12-08T18:05:50.970Z,3.17
2022-12-08T18:08:17.401Z,15.52
2022-12-08T18:10:43.887Z,34.70
2022-12-08T18:13:10.471Z,16.50
2022-12-08T18:15:39.325Z,4.00
2022-12-08T18:18:05.946Z,8.20
2022-12-08T18:20:32.592Z,20.77
2022-12-08T18:22:58.961Z,19.50
2022-12-08T18:25:25.407Z,15.93
2022-12-08T18:27:51.873Z,14.77
2022-12-08T18:30:18.394Z,11.73
2022-12-08T18:32:45.254Z,9.70
2022-12-08T18:35:11.776Z,8.77
2022-12-08T18:37:41.325Z,2.90
2022-12-08T18:40:08.279Z,4.60
2022-12-08T18:42:34.832Z,5.07
2022-12-08T18:45:06.670Z,4.18
2022-12-08T18:47:37.208Z,4.72
2022-12-08T18:50:07.643Z,4.50
2022-12-08T18:52:34.436Z,5.00
2022-12-08T18:55:08.420Z,4.28
2022-12-08T18:57:37.568Z,4.18
2022-12-08T19:00:05.113Z,3.42
2022-12-08T19:02:31.992Z,3.38
2022-12-08T19:04:59.680Z,3.53
2022-12-08T19:07:26.058Z,4.63
2022-12-08T19:09:53.080Z,4.88
2022-12-08T19:12:19.520Z,3.42
2022-12-08T19:14:45.932Z,15.60
2022-12-08T19:17:12.309Z,10.13
2022-12-08T19:19:38.728Z,25.95
2022-12-08T19:22:05.156Z,12.10
2022-12-08T19:24:34.723Z,9.32
2022-12-08T19:27:01.146Z,6.22
2022-12-08T19:29:27.588Z,7.90
2022-12-08T19:31:54.032Z,6.43
2022-12-08T19:34:20.602Z,5.97
2022-12-08T19:36:47.040Z,6.80
2022-12-08T19:39:34.530Z,3.95
2022-12-08T19:42:19.535Z,3.20
2022-12-08T19:44:54.833Z,7.25
2022-12-08T19:47:22.378Z,4.88
2022-12-08T19:49:48.908Z,8.15
2022-12-08T19:52:15.433Z,4.50
2022-12-08T19:54:41.964Z,3.37
2022-12-08T19:57:08.426Z,8.98
2022-12-08T19:59:34.844Z,11.38
2022-12-08T20:02:01.383Z,12.52
2022-12-08T20:04:27.871Z,14.23
2022-12-08T20:06:55.072Z,10.50
2022-12-08T20:09:23.389Z,13.02
2022-12-08T20:11:50.896Z,12.05
2022-12-08T20:14:21.164Z,31.08
2022-12-08T20:16:47.678Z,15.07
2022-12-08T20:19:14.181Z,20.42
2022-12-08T20:21:40.732Z,24.23
2022-12-08T20:24:07.302Z,18.65
2022-12-08T20:26:33.666Z,15.10
2022-12-08T20:29:00.112Z,17.35
2022-12-08T20:31:27.930Z,11.40
2022-12-08T20:33:54.562Z,10.35
2022-12-08T20:36:21.749Z,18.02
2022-12-08T20:38:49.660Z,12.80
2022-12-08T20:41:16.248Z,14.93
2022-12-08T20:43:43.295Z,11.15
2022-12-08T20:46:10.804Z,16.73
2022-12-08T20:48:37.549Z,12.32
2022-12-08T20:51:04.242Z,11.38
2022-12-08T20:53:30.890Z,9.57
2022-12-08T20:55:57.446Z,13.52
2022-12-08T20:58:24.079Z,11.15
2022-12-08T21:00:50.669Z,13.15
2022-12-08T21:03:18.628Z,16.33
2022-12-08T21:05:49.363Z,10.27
2022-12-08T21:08:16.394Z,11.07
2022-12-08T21:10:44.093Z,14.40
2022-12-08T21:13:11.025Z,12.00
2022-12-08T21:15:37.878Z,12.63
2022-12-08T21:18:04.518Z,12.45
2022-12-08T21:20:31.234Z,13.97
2022-12-08T21:22:57.649Z,16.27
2022-12-08T21:25:24.113Z,15.40
2022-12-08T21:27:50.515Z,16.38
2022-12-08T21:30:17.183Z,16.88
2022-12-08T21:32:43.657Z,12.57
2022-12-08T21:35:10.761Z,17.23
2022-12-08T21:37:37.357Z,16.87
2022-12-08T21:40:05.172Z,15.32
2022-12-08T21:42:43.969Z,17.25
2022-12-08T21:45:15.173Z,13.98
2022-12-08T21:47:41.786Z,13.23
2022-12-08T21:50:09.005Z,18.02
2022-12-08T21:52:40.088Z,17.30
2022-12-08T21:55:06.860Z,16.08
2022-12-08T21:57:33.300Z,15.18
2022-12-08T21:59:59.728Z,16.77
2022-12-08T22:02:26.345Z,14.20
2022-12-08T22:04:53.086Z,15.98
2022-12-08T22:07:20.308Z,13.68
2022-12-08T22:09:47.398Z,21.88
2022-12-08T22:12:14.252Z,17.57
2022-12-08T22:14:40.824Z,17.55
2022-12-08T22:17:07.425Z,15.75
2022-12-08T22:19:34.481Z,15.68
2022-12-08T22:22:01.109Z,19.23
2022-12-08T22:24:29.387Z,20.30
2022-12-08T22:26:55.758Z,19.17
2022-12-08T22:29:22.228Z,17.60
2022-12-08T22:31:48.742Z,19.52
2022-12-08T22:34:15.158Z,17.13
2022-12-08T22:36:42.660Z,17.97
2022-12-08T22:39:12.359Z,14.88
2022-12-08T22:41:38.884Z,20.30
2022-12-08T22:44:06.228Z,18.15
2022-12-08T22:46:32.913Z,17.40
2022-12-08T22:48:59.679Z,22.93
2022-12-08T22:51:26.256Z,16.67
2022-12-08T22:53:52.704Z,15.63
2022-12-08T22:56:19.677Z,19.17
2022-12-08T22:58:46.446Z,17.85
2022-12-08T23:01:26.886Z,17.87
2022-12-08T23:03:53.505Z,19.85
2022-12-08T23:06:20.352Z,18.85
2022-12-08T23:08:47.229Z,18.17
2022-12-08T23:11:13.684Z,18.60
2022-12-08T23:13:40.293Z,18.27
2022-12-08T23:16:08.350Z,17.35
2022-12-08T23:18:37.909Z,21.33
2022-12-08T23:21:05.564Z,19.55
2022-12-08T23:23:31.961Z,21.73
2022-12-08T23:25:58.348Z,17.37
2022-12-08T23:28:24.923Z,19.05
2022-12-08T23:30:51.511Z,20.38
2022-12-08T23:33:17.950Z,18.60
2022-12-08T23:35:44.557Z,19.30
2022-12-08T23:38:10.974Z,16.27
2022-12-08T23:40:37.335Z,17.77
2022-12-08T23:43:04.760Z,14.77
2022-12-08T23:45:31.296Z,17.38
2022-12-08T23:47:57.693Z,14.27
2022-12-08T23:50:24.052Z,15.30
2022-12-08T23:52:50.461Z,16.10
2022-12-08T23:55:17.070Z,16.80
2022-12-08T23:57:43.648Z,14.52
